Cawood, Kentucky
Current Conditions -  °F | °C
As of 11:55 AM on Saturday 22 Nov 2014 (Local Time) from KI35 Reporting Station
Clear Clear  
Wind Chill: 54°   Ceiling: Unl
Heat Index: 54°   Visibility: 10mi
Dew Point: 21°   Wind: 3mph
Humidity: 28%   Direction: 90°E
Pressure: 30.35"   Gusts: NA
Location:  36.78°N, 83.23°W
Report Text: KI35 221655Z AUTO 09003KT 10SM CLR 12/M06 A3035 RMK AO1
Loading
Personal Weather Stations






























Interactive Weather Map New forecast layout! Learn more

10-Day Weather Forecast

Advertisements
Track Severe Weather on mobile